Time;durP1;ratioP1;P1;durP2;ratioP2;P2;SDS_P1;SDS_P2;PMS_P1;PMS_P2;Temp;Humidity;BMP_temperature;BMP_pressure;BME280_temperature;BME280_humidity;BME280_pressure;Samples;Min_cycle;Max_cycle;Signal;HPM_P1;HPM_P2
2023/01/07 00:02:19;;;;;;;4.50;3.42;;;13.60;79.80;;;;;;5038877;28;20049;-82
2023/01/07 00:04:45;;;;;;;4.25;3.38;;;13.60;79.80;;;;;;5055655;28;20037;-83
2023/01/07 00:07:10;;;;;;;4.65;3.22;;;13.60;79.80;;;;;;5072003;28;20025;-82
2023/01/07 00:09:36;;;;;;;4.20;3.13;;;13.70;79.90;;;;;;5056742;28;20171;-83
2023/01/07 00:12:02;;;;;;;4.18;3.25;;;13.60;79.80;;;;;;5038477;28;20048;-82
2023/01/07 00:14:28;;;;;;;4.35;3.55;;;13.70;79.90;;;;;;5038799;28;20033;-83
2023/01/07 00:16:53;;;;;;;3.53;3.00;;;13.60;79.80;;;;;;5071718;28;20496;-82
2023/01/07 00:19:21;;;;;;;4.53;3.55;;;13.70;79.90;;;;;;5038307;28;20044;-82
2023/01/07 00:21:46;;;;;;;4.10;3.58;;;13.70;79.90;;;;;;5039025;28;20029;-83
2023/01/07 00:24:12;;;;;;;4.18;3.35;;;13.70;79.90;;;;;;5038967;28;20112;-82
2023/01/07 00:26:38;;;;;;;4.35;3.22;;;13.70;79.90;;;;;;5038413;28;20504;-82
2023/01/07 00:29:06;;;;;;;3.78;3.25;;;13.60;79.90;;;;;;5054240;28;20112;-81
2023/01/07 00:31:34;;;;;;;3.90;3.15;;;13.60;79.90;;;;;;5038361;28;20033;-83
2023/01/07 00:36:29;;;;;;;4.03;3.45;;;13.60;79.90;;;;;;5055131;28;20037;-82
2023/01/07 00:39:00;;;;;;;3.75;3.05;;;13.60;80.00;;;;;;5038039;28;20060;-82
2023/01/07 00:41:27;;;;;;;3.55;3.10;;;13.60;80.00;;;;;;5055733;28;20120;-82
2023/01/07 00:43:53;;;;;;;4.20;3.20;;;13.60;80.00;;;;;;5054917;28;20429;-82
2023/01/07 00:46:19;;;;;;;3.42;3.05;;;13.60;80.00;;;;;;5054939;28;20029;-82
2023/01/07 00:48:45;;;;;;;3.95;3.25;;;13.60;80.00;;;;;;5071338;28;20115;-82
2023/01/07 00:51:14;;;;;;;3.95;3.40;;;13.60;80.10;;;;;;5055232;28;20029;-83
2023/01/07 00:53:40;;;;;;;4.05;3.17;;;13.60;80.10;;;;;;5055533;28;20029;-83
2023/01/07 00:56:07;;;;;;;4.05;3.20;;;13.60;80.00;;;;;;5037816;28;20033;-83
2023/01/07 00:58:34;;;;;;;3.58;3.03;;;13.60;80.10;;;;;;5021828;28;20033;-83
2023/01/07 01:01:01;;;;;;;3.67;3.00;;;13.60;80.00;;;;;;5037179;28;20091;-82
2023/01/07 01:03:28;;;;;;;4.53;3.20;;;13.60;80.10;;;;;;5054448;28;20087;-83
2023/01/07 01:06:03;;;;;;;4.07;3.40;;;13.60;80.10;;;;;;5037991;28;20191;-83
2023/01/07 01:08:31;;;;;;;3.38;2.75;;;13.60;80.10;;;;;;5054964;28;20029;-82
2023/01/07 01:11:02;;;;;;;3.83;3.10;;;13.60;80.00;;;;;;5054297;28;20106;-83
2023/01/07 01:13:28;;;;;;;4.25;3.30;;;13.60;80.10;;;;;;5037892;28;20037;-83
2023/01/07 01:15:54;;;;;;;4.35;3.47;;;13.60;80.00;;;;;;5054428;28;20025;-83
2023/01/07 01:18:20;;;;;;;3.95;3.03;;;13.50;80.00;;;;;;5054863;28;20048;-83
2023/01/07 01:20:45;;;;;;;4.18;3.22;;;13.50;80.00;;;;;;5037802;28;20099;-82
2023/01/07 01:23:11;;;;;;;3.83;3.10;;;13.50;80.00;;;;;;5038222;28;20029;-82
2023/01/07 01:25:37;;;;;;;4.43;3.20;;;13.50;80.00;;;;;;5054431;28;20126;-83
2023/01/07 01:28:03;;;;;;;4.45;3.22;;;13.50;80.00;;;;;;5037446;28;20028;-81
2023/01/07 01:30:29;;;;;;;3.83;2.95;;;13.50;80.00;;;;;;5054206;28;20075;-83
2023/01/07 01:32:56;;;;;;;3.63;2.80;;;13.50;80.00;;;;;;5037873;28;20040;-82
2023/01/07 01:35:24;;;;;;;4.43;3.28;;;13.50;80.00;;;;;;5053569;28;20033;-82
2023/01/07 01:37:50;;;;;;;4.30;3.35;;;13.50;80.00;;;;;;5070401;28;20039;-82
2023/01/07 01:40:16;;;;;;;3.70;2.78;;;13.50;80.00;;;;;;5037231;28;20166;-82
2023/01/07 01:42:42;;;;;;;3.78;3.05;;;13.50;80.00;;;;;;5055027;28;20559;-84
2023/01/07 01:45:11;;;;;;;4.90;3.20;;;13.50;80.00;;;;;;5037827;28;20047;-83
2023/01/07 01:47:45;;;;;;;3.78;2.92;;;13.50;80.00;;;;;;5037990;28;20351;-82
2023/01/07 01:50:38;;;;;;;4.13;3.03;;;13.50;80.00;;;;;;5070497;28;20033;-83
2023/01/07 01:53:09;;;;;;;3.80;3.08;;;13.50;80.00;;;;;;5070364;28;20369;-83
2023/01/07 01:55:43;;;;;;;3.80;2.97;;;13.50;80.00;;;;;;5070154;28;20469;-83
2023/01/07 01:58:15;;;;;;;4.03;3.03;;;13.50;80.00;;;;;;5053348;28;20061;-83
2023/01/07 02:00:42;;;;;;;3.70;2.88;;;13.50;80.00;;;;;;5070676;28;20033;-83
2023/01/07 02:03:13;;;;;;;4.07;3.10;;;13.50;80.00;;;;;;5053250;28;20102;-82
2023/01/07 02:05:41;;;;;;;3.42;2.88;;;13.50;80.00;;;;;;5053483;28;20036;-83
2023/01/07 02:08:08;;;;;;;3.78;3.10;;;13.50;80.00;;;;;;5052966;28;20389;-82
2023/01/07 02:10:35;;;;;;;3.47;3.00;;;13.50;80.00;;;;;;5037492;28;20033;-82
2023/01/07 02:13:23;;;;;;;3.55;3.00;;;13.50;80.00;;;;;;5052771;28;20025;-83
2023/01/07 02:16:04;;;;;;;3.80;3.00;;;13.40;80.00;;;;;;5054199;28;20078;-82
2023/01/07 02:18:50;;;;;;;3.50;2.70;;;13.50;80.00;;;;;;5052864;28;20050;-81
2023/01/07 02:21:43;;;;;;;3.15;2.75;;;13.50;80.00;;;;;;5053585;28;20056;-82
2023/01/07 02:24:47;;;;;;;3.65;2.80;;;13.50;80.10;;;;;;5053708;28;20035;-83
2023/01/07 02:27:28;;;;;;;4.70;2.85;;;13.40;80.10;;;;;;5070307;28;20083;-82
2023/01/07 02:30:03;;;;;;;3.47;2.88;;;13.40;80.00;;;;;;5053669;28;20116;-83
2023/01/07 02:32:53;;;;;;;;;;;13.40;80.00;;;;;;5053493;28;20033;-83
2023/01/07 02:35:34;;;;;;;3.03;2.28;;;13.40;79.90;;;;;;5053291;28;20003;-83
2023/01/07 02:38:29;;;;;;;3.45;2.67;;;13.40;79.90;;;;;;5052956;28;20046;-82
2023/01/07 02:41:27;;;;;;;3.80;2.78;;;13.40;80.00;;;;;;5052922;28;20035;-82
2023/01/07 02:44:23;;;;;;;3.40;2.55;;;13.40;80.10;;;;;;5052886;28;20029;-82
2023/01/07 02:47:19;;;;;;;3.30;2.63;;;13.40;80.00;;;;;;5052586;28;20029;-82
2023/01/07 02:49:48;;;;;;;;;;;13.40;80.10;;;;;;5053039;28;20100;-83
2023/01/07 02:52:25;;;;;;;3.58;2.38;;;13.30;79.90;;;;;;5052022;28;20323;-82
2023/01/07 02:55:06;;;;;;;3.25;2.72;;;13.40;79.90;;;;;;5052718;28;20502;-84
2023/01/07 02:57:53;;;;;;;3.35;2.60;;;13.40;80.00;;;;;;5069716;28;20028;-82
2023/01/07 03:00:43;;;;;;;3.00;2.50;;;13.40;80.00;;;;;;5052491;28;20060;-81
2023/01/07 03:03:36;;;;;;;3.90;2.58;;;13.30;80.00;;;;;;5052203;28;20120;-83
2023/01/07 03:06:26;;;;;;;3.15;2.47;;;13.30;80.10;;;;;;5052797;28;20021;-83
2023/01/07 03:09:16;;;;;;;3.78;2.75;;;13.30;80.00;;;;;;5052762;28;20043;-82
2023/01/07 03:12:04;;;;;;;2.75;2.42;;;13.30;80.10;;;;;;5052938;28;20342;-82
2023/01/07 03:14:58;;;;;;;3.60;2.72;;;13.30;80.10;;;;;;5052466;28;20063;-82
2023/01/07 03:17:30;;;;;;;3.22;2.63;;;13.30;80.10;;;;;;5081367;28;20048;-82
2023/01/07 03:19:59;;;;;;;3.08;2.55;;;13.30;80.00;;;;;;5052715;28;20055;-82
2023/01/07 03:22:29;;;;;;;2.95;2.50;;;13.30;80.00;;;;;;5069032;28;20032;-82
2023/01/07 03:24:56;;;;;;;2.60;2.22;;;13.30;80.10;;;;;;5051951;28;20061;-82
2023/01/07 03:27:26;;;;;;;3.35;2.70;;;13.30;80.00;;;;;;5052123;28;20029;-82
2023/01/07 03:29:52;;;;;;;4.88;2.75;;;13.30;80.10;;;;;;5052247;28;20091;-82
2023/01/07 03:32:35;;;;;;;2.85;2.45;;;13.30;80.10;;;;;;5069401;28;20029;-82
2023/01/07 03:35:01;;;;;;;3.92;3.05;;;13.30;80.10;;;;;;5053605;28;20029;-83
2023/01/07 03:37:29;;;;;;;3.00;2.60;;;13.30;80.00;;;;;;5035517;28;20021;-82
2023/01/07 03:39:59;;;;;;;3.30;2.35;;;13.30;80.10;;;;;;5052598;28;20051;-83
2023/01/07 03:42:39;;;;;;;3.65;2.70;;;13.30;80.10;;;;;;5035507;28;20354;-82
2023/01/07 03:45:17;;;;;;;3.40;2.72;;;13.30;80.10;;;;;;5052012;28;20040;-82
2023/01/07 03:47:46;;;;;;;2.60;2.28;;;13.30;80.30;;;;;;5050992;28;20033;-83
2023/01/07 03:50:13;;;;;;;2.72;2.35;;;13.30;80.00;;;;;;5052003;28;20111;-83
2023/01/07 03:52:41;;;;;;;2.83;2.30;;;13.30;80.10;;;;;;5052128;28;20035;-84
2023/01/07 03:55:09;;;;;;;3.00;2.35;;;13.30;80.10;;;;;;5036020;28;20029;-83
2023/01/07 03:57:35;;;;;;;3.65;2.63;;;13.30;80.10;;;;;;5051939;28;20120;-83
2023/01/07 04:00:04;;;;;;;3.17;2.50;;;13.30;80.00;;;;;;5051291;28;20472;-83
2023/01/07 04:02:40;;;;;;;3.08;2.30;;;13.30;80.10;;;;;;5082817;28;20466;-83
2023/01/07 04:05:09;;;;;;;2.90;2.50;;;13.30;80.00;;;;;;5038928;28;20037;-83
2023/01/07 04:07:36;;;;;;;3.40;2.55;;;13.30;80.10;;;;;;5072534;28;20037;-83
2023/01/07 04:10:03;;;;;;;3.15;2.60;;;13.20;80.00;;;;;;5055499;28;20029;-82
2023/01/07 04:12:29;;;;;;;3.90;2.65;;;13.20;80.00;;;;;;5056367;28;20082;-82
2023/01/07 04:14:55;;;;;;;2.78;2.38;;;13.20;80.00;;;;;;5022357;28;20493;-82
2023/01/07 04:17:21;;;;;;;3.50;2.55;;;13.20;80.00;;;;;;5071638;28;20056;-83
2023/01/07 04:19:46;;;;;;;3.00;2.40;;;13.20;80.00;;;;;;5072050;28;20043;-83
2023/01/07 04:22:13;;;;;;;3.00;2.60;;;13.20;80.00;;;;;;5038945;28;20025;-84
2023/01/07 04:24:40;;;;;;;3.60;2.42;;;13.20;80.00;;;;;;5054805;28;20087;-84
2023/01/07 04:27:06;;;;;;;3.05;2.63;;;13.20;80.00;;;;;;5055420;28;20031;-83
2023/01/07 04:29:32;;;;;;;2.53;2.17;;;13.20;80.00;;;;;;5038565;28;20037;-84
2023/01/07 04:31:58;;;;;;;2.92;2.38;;;13.20;80.00;;;;;;5038496;28;20025;-83
2023/01/07 04:34:24;;;;;;;2.90;2.25;;;13.20;80.00;;;;;;5071831;28;20120;-83
2023/01/07 04:36:51;;;;;;;2.83;2.40;;;13.20;80.00;;;;;;5071432;28;20075;-83
2023/01/07 04:39:17;;;;;;;2.45;2.20;;;13.20;80.10;;;;;;5038054;28;20044;-83
2023/01/07 04:41:43;;;;;;;3.50;2.55;;;13.10;80.00;;;;;;5039847;28;20386;-83
2023/01/07 04:44:10;;;;;;;2.65;2.10;;;13.20;80.10;;;;;;5072022;28;20033;-83
2023/01/07 04:46:36;;;;;;;3.17;2.40;;;13.10;80.00;;;;;;5056077;28;20033;-83
2023/01/07 04:49:02;;;;;;;2.70;2.28;;;13.10;80.00;;;;;;5072926;28;20083;-83
2023/01/07 04:51:29;;;;;;;2.17;1.98;;;13.10;80.00;;;;;;5055380;28;20021;-83
2023/01/07 04:53:57;;;;;;;2.63;2.22;;;13.10;80.00;;;;;;5038426;28;20086;-83
2023/01/07 04:56:23;;;;;;;3.20;2.30;;;13.10;80.10;;;;;;5039278;28;20359;-83
2023/01/07 04:58:49;;;;;;;2.15;1.95;;;13.10;80.10;;;;;;5038539;28;20040;-83
2023/01/07 05:01:16;;;;;;;2.67;2.15;;;13.10;80.00;;;;;;5038294;28;20041;-84
2023/01/07 05:03:42;;;;;;;2.53;2.20;;;13.00;80.00;;;;;;5055205;28;20033;-83
2023/01/07 05:06:08;;;;;;;2.75;2.40;;;13.10;80.10;;;;;;5037824;28;20033;-83
2023/01/07 05:08:35;;;;;;;3.08;2.30;;;13.10;80.00;;;;;;5037840;28;20044;-82
2023/01/07 05:11:03;;;;;;;2.65;2.33;;;13.00;80.00;;;;;;5071079;28;20075;-83
2023/01/07 05:13:34;;;;;;;2.25;2.03;;;13.10;80.00;;;;;;5054441;28;20033;-83
2023/01/07 05:16:02;;;;;;;2.30;2.03;;;13.00;80.00;;;;;;5070923;28;20048;-83
2023/01/07 05:18:29;;;;;;;2.40;2.00;;;13.00;80.00;;;;;;5038065;28;20068;-83
2023/01/07 05:20:56;;;;;;;3.22;2.20;;;13.00;80.00;;;;;;5071293;28;20040;-84
2023/01/07 05:23:22;;;;;;;2.58;2.08;;;13.00;79.90;;;;;;5037462;28;20596;-82
2023/01/07 05:25:49;;;;;;;2.97;2.33;;;13.00;80.00;;;;;;5054017;28;20491;-83
2023/01/07 05:28:15;;;;;;;2.33;2.13;;;13.00;80.00;;;;;;5037221;28;20029;-83
2023/01/07 05:30:41;;;;;;;2.58;2.10;;;13.00;79.90;;;;;;5037311;28;20037;-83
2023/01/07 05:33:07;;;;;;;2.63;2.10;;;12.90;79.90;;;;;;5037252;28;20029;-83
2023/01/07 05:35:34;;;;;;;2.70;2.10;;;12.90;79.90;;;;;;5037755;28;20033;-83
2023/01/07 05:38:01;;;;;;;2.67;2.10;;;13.00;79.90;;;;;;5070269;28;20029;-82
2023/01/07 05:40:28;;;;;;;2.45;2.13;;;13.00;80.00;;;;;;5053329;28;20045;-82
2023/01/07 05:42:54;;;;;;;2.10;1.90;;;12.90;79.90;;;;;;5053683;28;20032;-83
2023/01/07 05:45:22;;;;;;;2.70;2.22;;;13.00;79.90;;;;;;5036858;28;20056;-83
2023/01/07 05:47:48;;;;;;;2.40;2.00;;;13.00;80.00;;;;;;5037342;28;20026;-82
2023/01/07 05:50:14;;;;;;;2.25;2.05;;;13.00;79.90;;;;;;5037577;28;20037;-83
2023/01/07 05:52:40;;;;;;;2.30;2.10;;;12.90;79.90;;;;;;5069986;28;20029;-83
2023/01/07 05:55:07;;;;;;;2.90;2.25;;;12.90;79.90;;;;;;5053286;28;20040;-83
2023/01/07 05:57:33;;;;;;;2.33;2.05;;;12.90;79.90;;;;;;5054273;28;20028;-83
2023/01/07 05:59:58;;;;;;;2.83;2.10;;;12.90;79.90;;;;;;5053037;28;20037;-82
2023/01/07 06:02:24;;;;;;;2.22;1.98;;;12.90;79.90;;;;;;5069645;28;20498;-83
2023/01/07 06:04:50;;;;;;;3.15;2.33;;;12.90;79.90;;;;;;5069824;28;20064;-82
2023/01/07 06:07:16;;;;;;;2.20;2.00;;;12.90;79.90;;;;;;5036622;28;20061;-83
2023/01/07 06:09:41;;;;;;;2.22;1.90;;;12.90;79.90;;;;;;5036376;28;20127;-82
2023/01/07 06:12:07;;;;;;;2.22;2.00;;;12.90;79.90;;;;;;5053172;28;20029;-82
2023/01/07 06:14:33;;;;;;;2.58;1.92;;;12.90;79.90;;;;;;5036673;28;20489;-83
2023/01/07 06:16:58;;;;;;;3.25;2.05;;;12.90;79.90;;;;;;5054075;28;20031;-82
2023/01/07 06:19:26;;;;;;;2.47;2.00;;;12.80;79.80;;;;;;5052934;28;20044;-83
2023/01/07 06:21:51;;;;;;;2.65;2.13;;;12.90;79.90;;;;;;5069814;28;20028;-84
2023/01/07 06:24:17;;;;;;;2.20;1.88;;;12.90;79.90;;;;;;5052755;28;20044;-82
2023/01/07 06:26:43;;;;;;;2.38;2.10;;;12.90;79.90;;;;;;5035587;28;20075;-83
2023/01/07 06:29:09;;;;;;;2.72;2.00;;;12.90;79.90;;;;;;5052825;28;20037;-82
2023/01/07 06:31:35;;;;;;;2.35;2.00;;;12.90;79.90;;;;;;5036069;28;20041;-83
2023/01/07 06:34:01;;;;;;;2.00;1.85;;;12.90;79.90;;;;;;5052947;28;20067;-83
2023/01/07 06:36:27;;;;;;;2.05;1.85;;;12.90;79.90;;;;;;5053677;28;20029;-83
2023/01/07 06:38:52;;;;;;;2.28;1.90;;;12.90;79.90;;;;;;5069670;28;20045;-84
2023/01/07 06:41:18;;;;;;;2.20;1.90;;;12.80;79.80;;;;;;5036116;28;20032;-83
2023/01/07 06:43:44;;;;;;;3.08;2.00;;;12.90;79.90;;;;;;5036567;28;20543;-83
2023/01/07 06:46:09;;;;;;;1.80;1.70;;;12.80;79.90;;;;;;5052695;28;20029;-83
2023/01/07 06:48:35;;;;;;;2.10;1.90;;;12.90;79.90;;;;;;5035841;28;20044;-83
2023/01/07 06:51:01;;;;;;;1.98;1.77;;;12.80;79.90;;;;;;5053642;28;20025;-83
2023/01/07 06:53:27;;;;;;;1.85;1.70;;;12.90;79.90;;;;;;5052507;28;20160;-83
2023/01/07 06:55:52;;;;;;;2.10;1.90;;;12.80;79.90;;;;;;5052658;28;20072;-81
2023/01/07 06:58:19;;;;;;;2.10;1.85;;;12.90;79.90;;;;;;5036366;28;20487;-83
2023/01/07 07:00:44;;;;;;;2.17;1.88;;;12.80;79.90;;;;;;5068636;28;20060;-84
2023/01/07 07:03:10;;;;;;;2.83;1.90;;;12.80;79.90;;;;;;5068925;28;20049;-83
2023/01/07 07:05:36;;;;;;;2.38;1.90;;;12.80;79.90;;;;;;5035912;28;20225;-82
2023/01/07 07:08:03;;;;;;;1.92;1.77;;;12.80;79.90;;;;;;5035681;28;20029;-83
2023/01/07 07:10:29;;;;;;;2.38;1.80;;;12.80;79.90;;;;;;5068887;28;20029;-83
2023/01/07 07:12:55;;;;;;;2.05;1.83;;;12.90;79.90;;;;;;5052741;28;20381;-83
2023/01/07 07:15:21;;;;;;;2.05;1.75;;;12.80;79.90;;;;;;5086261;28;20418;-84
2023/01/07 07:17:46;;;;;;;2.03;1.83;;;12.90;79.90;;;;;;5052234;28;20117;-85
2023/01/07 07:20:12;;;;;;;3.75;1.73;;;12.80;79.90;;;;;;5069435;28;20060;-83
2023/01/07 07:22:44;;;;;;;2.42;1.90;;;12.80;79.90;;;;;;5035931;28;20033;-82
2023/01/07 07:25:10;;;;;;;1.95;1.80;;;12.80;79.90;;;;;;5052647;28;20454;-83
2023/01/07 07:27:35;;;;;;;2.35;1.95;;;12.80;79.90;;;;;;5035923;28;20032;-83
2023/01/07 07:30:01;;;;;;;1.95;1.75;;;12.80;79.90;;;;;;5035743;28;20033;-84
2023/01/07 07:32:27;;;;;;;2.17;1.98;;;12.80;79.90;;;;;;5052304;28;20028;-83
2023/01/07 07:34:55;;;;;;;2.15;1.70;;;12.80;79.90;;;;;;5035779;28;20390;-83
2023/01/07 07:37:21;;;;;;;2.28;1.77;;;12.80;79.90;;;;;;5052450;28;20477;-83
2023/01/07 07:39:46;;;;;;;1.80;1.70;;;12.80;79.90;;;;;;5073732;28;20135;-83
2023/01/07 07:42:12;;;;;;;1.88;1.77;;;12.80;79.90;;;;;;5056510;28;20351;-83
2023/01/07 07:44:38;;;;;;;1.90;1.70;;;12.80;79.90;;;;;;5072950;28;20044;-83
2023/01/07 07:47:04;;;;;;;2.30;1.85;;;12.80;79.90;;;;;;5039272;28;20029;-83
2023/01/07 07:49:29;;;;;;;1.83;1.73;;;12.80;79.90;;;;;;5089136;28;20044;-82
2023/01/07 07:51:55;;;;;;;1.88;1.77;;;12.80;79.90;;;;;;5072482;28;20033;-82
2023/01/07 07:54:21;;;;;;;2.30;1.90;;;12.80;80.50;;;;;;5039453;28;20482;-83
2023/01/07 07:56:47;;;;;;;2.40;2.00;;;12.80;79.90;;;;;;5039077;28;20388;-81
2023/01/07 07:59:12;;;;;;;2.10;1.73;;;12.80;79.90;;;;;;5039311;28;20037;-82
2023/01/07 08:01:38;;;;;;;2.08;1.73;;;12.80;79.90;;;;;;5072025;28;20052;-81
2023/01/07 08:04:04;;;;;;;1.70;1.60;;;12.80;79.90;;;;;;5055856;28;20489;-84
2023/01/07 08:06:29;;;;;;;1.90;1.58;;;12.80;79.90;;;;;;5038946;28;20025;-81
2023/01/07 08:08:55;;;;;;;2.08;1.73;;;12.80;79.90;;;;;;5038607;28;20037;-81
2023/01/07 08:11:21;;;;;;;1.85;1.67;;;12.80;79.90;;;;;;5055833;28;20462;-81
2023/01/07 08:13:47;;;;;;;1.90;1.70;;;12.80;79.90;;;;;;5039029;28;20033;-80
2023/01/07 08:16:12;;;;;;;1.50;1.40;;;12.80;79.90;;;;;;5057393;28;20032;-81
2023/01/07 08:18:38;;;;;;;2.42;2.00;;;12.80;79.90;;;;;;5055453;28;20041;-81
2023/01/07 08:21:04;;;;;;;1.60;1.50;;;12.80;79.90;;;;;;5054839;28;20036;-79
2023/01/07 08:23:30;;;;;;;1.90;1.70;;;12.80;79.90;;;;;;5038839;28;20192;-81
2023/01/07 08:26:01;;;;;;;2.58;1.73;;;12.80;79.90;;;;;;5054950;28;20112;-80
2023/01/07 08:28:28;;;;;;;1.63;1.52;;;12.80;79.90;;;;;;5055496;28;20048;-81
2023/01/07 08:30:54;;;;;;;1.92;1.60;;;12.80;79.90;;;;;;5038832;28;20071;-82
2023/01/07 08:33:20;;;;;;;1.48;1.38;;;12.90;79.90;;;;;;5056206;28;20591;-81
2023/01/07 08:35:45;;;;;;;1.50;1.40;;;12.80;79.90;;;;;;5054526;28;20046;-81
2023/01/07 08:38:11;;;;;;;1.52;1.42;;;12.80;79.90;;;;;;5038159;28;20033;-80
2023/01/07 08:40:37;;;;;;;1.70;1.60;;;12.80;79.90;;;;;;5070879;28;20044;-86
2023/01/07 08:43:05;;;;;;;1.95;1.80;;;12.80;79.90;;;;;;5055794;28;20031;-81
2023/01/07 08:45:31;;;;;;;1.75;1.40;;;12.80;79.90;;;;;;5054485;28;20380;-81
2023/01/07 08:47:58;;;;;;;2.15;1.80;;;12.80;79.90;;;;;;5087995;28;20029;-79
2023/01/07 08:50:29;;;;;;;1.70;1.60;;;12.90;79.90;;;;;;5036914;28;20033;-80
2023/01/07 08:52:55;;;;;;;1.73;1.50;;;12.80;79.90;;;;;;5054338;28;20029;-80
2023/01/07 08:55:21;;;;;;;2.17;1.60;;;12.80;79.90;;;;;;5038239;28;20033;-82
2023/01/07 08:57:49;;;;;;;1.63;1.52;;;12.80;79.90;;;;;;5053861;28;20036;-81
2023/01/07 09:00:16;;;;;;;1.90;1.70;;;12.80;79.90;;;;;;5053946;28;20032;-80
2023/01/07 09:02:43;;;;;;;1.80;1.60;;;12.90;79.90;;;;;;5053846;28;20059;-80
2023/01/07 09:05:09;;;;;;;1.77;1.67;;;12.90;79.90;;;;;;5054246;28;20037;-81
2023/01/07 09:07:35;;;;;;;1.60;1.50;;;12.80;79.80;;;;;;5037449;28;20033;-81
2023/01/07 09:10:01;;;;;;;1.70;1.60;;;12.90;79.90;;;;;;5053838;28;20043;-81
2023/01/07 09:12:27;;;;;;;1.77;1.60;;;12.90;79.90;;;;;;5053667;28;20044;-80
2023/01/07 09:14:53;;;;;;;1.70;1.60;;;12.90;79.90;;;;;;5070080;28;20033;-81
2023/01/07 09:17:18;;;;;;;1.60;1.50;;;12.90;79.90;;;;;;5054088;28;20112;-81
2023/01/07 09:19:44;;;;;;;1.58;1.48;;;12.90;79.90;;;;;;5038051;28;20136;-81
2023/01/07 09:22:10;;;;;;;1.75;1.65;;;12.90;79.90;;;;;;5054397;28;20037;-82
2023/01/07 09:24:36;;;;;;;1.60;1.50;;;12.90;79.90;;;;;;5071212;28;20037;-80
2023/01/07 09:27:01;;;;;;;1.88;1.65;;;12.90;79.90;;;;;;5053314;28;20021;-80
2023/01/07 09:29:27;;;;;;;1.65;1.50;;;12.90;79.90;;;;;;5036954;28;20051;-80
2023/01/07 09:31:53;;;;;;;1.90;1.67;;;12.90;79.90;;;;;;5054994;28;20025;-80
2023/01/07 09:34:18;;;;;;;1.60;1.50;;;12.90;79.80;;;;;;5054471;28;20033;-80
2023/01/07 09:36:44;;;;;;;1.90;1.55;;;12.90;79.80;;;;;;5037204;28;20044;-80
2023/01/07 09:39:11;;;;;;;2.13;1.80;;;12.90;80.00;;;;;;5070045;28;20067;-81
2023/01/07 09:41:58;;;;;;;1.50;1.40;;;12.90;79.80;;;;;;5053395;28;20040;-82
2023/01/07 09:44:44;;;;;;;1.50;1.40;;;13.00;79.90;;;;;;5053592;28;20415;-82
2023/01/07 09:47:12;;;;;;;2.10;1.73;;;12.90;79.80;;;;;;5053650;28;20374;-81
2023/01/07 09:49:40;;;;;;;2.70;1.63;;;13.00;79.90;;;;;;5053285;28;20037;-81
2023/01/07 09:52:35;;;;;;;3.78;1.75;;;13.00;79.90;;;;;;5069913;28;20033;-81
2023/01/07 09:55:27;;;;;;;;;;;13.00;79.90;;;;;;5053534;28;20045;-81
2023/01/07 09:57:54;;;;;;;2.35;1.50;;;13.00;79.70;;;;;;5052525;28;19908;-81
2023/01/07 10:00:23;;;;;;;1.60;1.50;;;12.90;79.60;;;;;;5069559;28;20427;-81
2023/01/07 10:03:13;;;;;;;1.40;1.25;;;12.90;79.80;;;;;;5035746;28;20076;-81
2023/01/07 10:05:54;;;;;;;1.83;1.52;;;13.00;79.90;;;;;;5052950;28;20029;-81
2023/01/07 10:08:34;;;;;;;1.63;1.52;;;12.90;79.80;;;;;;5053627;28;20101;-81
2023/01/07 10:11:35;;;;;;;1.70;1.45;;;13.00;79.90;;;;;;5069907;28;20037;-81
2023/01/07 10:14:12;;;;;;;1.60;1.50;;;12.90;79.90;;;;;;5051673;28;20025;-80
2023/01/07 10:16:44;;;;;;;1.70;1.60;;;13.00;79.90;;;;;;5033753;28;20504;-82
2023/01/07 10:19:40;;;;;;;1.55;1.45;;;13.00;79.90;;;;;;5069783;28;20059;-81
2023/01/07 10:22:34;;;;;;;1.65;1.55;;;13.00;80.00;;;;;;5053238;28;20025;-82
2023/01/07 10:25:08;;;;;;;1.70;1.60;;;13.00;79.90;;;;;;5053562;28;20033;-81
2023/01/07 10:27:39;;;;;;;1.75;1.58;;;13.00;79.90;;;;;;5052943;28;20071;-81
2023/01/07 10:30:12;;;;;;;1.65;1.55;;;13.00;79.90;;;;;;5086649;28;20525;-83
2023/01/07 10:32:38;;;;;;;2.55;1.80;;;13.00;80.00;;;;;;5052877;28;20061;-81
2023/01/07 10:35:12;;;;;;;1.60;1.50;;;13.10;80.00;;;;;;5036845;28;20476;-82
2023/01/07 10:37:40;;;;;;;1.60;1.50;;;13.00;79.90;;;;;;5054182;28;20567;-81
2023/01/07 10:40:52;;;;;;;1.92;1.70;;;13.10;80.00;;;;;;5069612;28;20029;-83
2023/01/07 10:43:39;;;;;;;1.55;1.45;;;13.10;80.10;;;;;;5053488;28;20032;-84
2023/01/07 10:46:20;;;;;;;1.60;1.50;;;13.10;79.90;;;;;;5086030;28;20029;-81
2023/01/07 10:48:52;;;;;;;1.40;1.30;;;13.10;79.90;;;;;;5052518;28;20032;-82
2023/01/07 10:51:27;;;;;;;2.05;1.40;;;13.10;79.90;;;;;;5054123;28;20032;-81
2023/01/07 10:53:53;;;;;;;;;;;13.10;79.90;;;;;;5052964;28;20385;-81
2023/01/07 10:56:36;;;;;;;1.50;1.40;;;13.10;79.80;;;;;;5069094;28;19905;-82
2023/01/07 10:59:02;;;;;;;1.50;1.40;;;13.10;79.80;;;;;;5052493;28;20036;-82
2023/01/07 11:01:38;;;;;;;1.63;1.52;;;13.10;79.80;;;;;;5068577;28;20088;-81
2023/01/07 11:04:12;;;;;;;1.83;1.40;;;13.10;79.90;;;;;;5035614;28;20041;-82
2023/01/07 11:06:45;;;;;;;1.58;1.40;;;13.10;79.90;;;;;;5052400;28;20450;-82
2023/01/07 11:09:19;;;;;;;1.58;1.48;;;13.20;80.00;;;;;;5069311;28;20158;-81
2023/01/07 11:11:47;;;;;;;1.67;1.45;;;13.20;80.00;;;;;;5053139;28;20112;-81
2023/01/07 11:14:24;;;;;;;1.50;1.40;;;13.20;80.00;;;;;;5051758;28;20029;-81
2023/01/07 11:16:59;;;;;;;1.42;1.33;;;13.20;80.00;;;;;;5051763;28;20071;-81
2023/01/07 11:19:48;;;;;;;1.60;1.50;;;13.20;79.90;;;;;;5052840;28;20043;-81
2023/01/07 11:22:26;;;;;;;1.60;1.50;;;13.30;80.10;;;;;;5051951;28;20025;-81
2023/01/07 11:24:52;;;;;;;1.40;1.30;;;13.20;80.00;;;;;;5051960;28;20029;-81
2023/01/07 11:27:22;;;;;;;1.63;1.52;;;13.30;80.00;;;;;;5035436;28;20572;-80
2023/01/07 11:30:00;;;;;;;1.65;1.38;;;13.30;80.00;;;;;;5051743;28;20044;-82
2023/01/07 11:32:37;;;;;;;1.70;1.60;;;13.30;80.00;;;;;;5052913;28;20037;-81
2023/01/07 11:35:28;;;;;;;1.48;1.38;;;13.30;80.00;;;;;;5052108;28;20470;-81
2023/01/07 11:37:54;;;;;;;1.50;1.40;;;13.30;80.00;;;;;;5051937;28;20041;-79
2023/01/07 11:40:22;;;;;;;1.88;1.60;;;13.30;80.00;;;;;;5052504;28;20045;-82
2023/01/07 11:42:49;;;;;;;1.58;1.40;;;13.30;80.00;;;;;;5051214;28;20029;-80
2023/01/07 11:45:16;;;;;;;1.58;1.48;;;13.30;80.00;;;;;;5051755;28;20025;-81
2023/01/07 11:47:46;;;;;;;2.00;1.80;;;13.40;80.10;;;;;;5052765;28;20108;-83
2023/01/07 11:50:24;;;;;;;1.50;1.38;;;13.40;80.10;;;;;;5051423;28;20029;-81
2023/01/07 11:53:14;;;;;;;1.65;1.40;;;13.40;80.10;;;;;;5051872;28;20025;-80
2023/01/07 11:55:58;;;;;;;1.40;1.30;;;13.40;80.10;;;;;;5051378;28;20105;-79
2023/01/07 11:58:31;;;;;;;1.45;1.35;;;13.40;80.10;;;;;;5051612;28;20033;-80
2023/01/07 12:01:09;;;;;;;1.45;1.35;;;13.40;80.00;;;;;;5051773;28;20029;-79
2023/01/07 12:03:38;;;;;;;1.50;1.30;;;13.50;80.10;;;;;;5051183;28;20140;-80
2023/01/07 12:06:10;;;;;;;1.50;1.40;;;13.40;80.00;;;;;;5051412;28;20543;-79
2023/01/07 12:08:39;;;;;;;1.30;1.20;;;13.40;80.00;;;;;;5053560;28;20116;-81
2023/01/07 12:11:08;;;;;;;1.40;1.30;;;13.40;80.00;;;;;;5051778;28;20032;-83
2023/01/07 12:13:35;;;;;;;1.40;1.30;;;13.50;80.10;;;;;;5051556;28;20021;-80
2023/01/07 12:16:03;;;;;;;1.38;1.27;;;13.50;80.00;;;;;;5051818;28;20029;-80
2023/01/07 12:18:54;;;;;;;1.23;1.13;;;13.50;80.00;;;;;;5051195;28;20083;-81
2023/01/07 12:21:56;;;;;;;1.40;1.30;;;13.50;80.00;;;;;;5052963;28;20044;-80
2023/01/07 12:24:30;;;;;;;1.33;1.20;;;13.50;80.10;;;;;;5053427;28;20029;-80
2023/01/07 12:27:14;;;;;;;1.40;1.30;;;13.50;80.00;;;;;;5054979;28;20036;-81
2023/01/07 12:30:02;;;;;;;1.38;1.27;;;13.50;80.00;;;;;;5055039;28;20032;-80
2023/01/07 12:32:52;;;;;;;1.35;1.25;;;13.50;80.10;;;;;;5056033;28;20494;-80
2023/01/07 12:35:25;;;;;;;1.65;1.52;;;13.50;80.00;;;;;;5054360;28;20025;-80
2023/01/07 12:37:56;;;;;;;1.58;1.40;;;13.60;80.10;;;;;;5054614;28;20033;-79
2023/01/07 12:40:31;;;;;;;1.70;1.60;;;13.60;80.10;;;;;;5054768;28;20492;-80
2023/01/07 12:43:19;;;;;;;;;;;13.60;80.10;;;;;;5055207;28;20025;-81
2023/01/07 12:45:50;;;;;;;1.50;1.38;;;13.60;79.90;;;;;;5055413;28;19959;-80
2023/01/07 12:49:04;;;;;;;1.60;1.23;;;13.60;79.90;;;;;;5054482;28;20033;-80
2023/01/07 12:51:35;;;;;;;1.40;1.30;;;13.60;80.10;;;;;;5053571;28;20166;-80
2023/01/07 12:54:33;;;;;;;1.58;1.48;;;13.60;80.00;;;;;;5055435;28;20112;-80
2023/01/07 12:57:08;;;;;;;1.40;1.30;;;13.70;80.20;;;;;;5054443;28;20462;-79
2023/01/07 12:59:43;;;;;;;1.40;1.30;;;13.70;80.10;;;;;;5054424;28;20033;-79
2023/01/07 13:02:24;;;;;;;;;;;13.70;80.10;;;;;;5054304;28;20106;-80
2023/01/07 13:05:08;;;;;;;1.25;1.15;;;13.70;80.00;;;;;;5054641;28;19909;-81
2023/01/07 13:07:41;;;;;;;1.65;1.40;;;13.70;79.90;;;;;;5054317;28;20056;-80
2023/01/07 13:10:27;;;;;;;1.50;1.40;;;13.70;79.90;;;;;;5054024;28;20147;-79
2023/01/07 13:13:01;;;;;;;1.60;1.50;;;13.80;79.90;;;;;;5055522;28;20425;-80